Time;durP1;ratioP1;P1;durP2;ratioP2;P2;SDS_P1;SDS_P2;PMS_P1;PMS_P2;Temp;Humidity;BMP_temperature;BMP_pressure;BME280_temperature;BME280_humidity;BME280_pressure;Samples;Min_cycle;Max_cycle;Signal;HPM_P1;HPM_P2
2021/09/17 00:00:08;;;;;;;10.55;5.28;;;22.60;66.50;;;;;;4996079;28;20257;-75
2021/09/17 00:02:34;;;;;;;5.40;4.90;;;22.50;66.00;;;;;;4995897;28;20239;-75
2021/09/17 00:04:59;;;;;;;4.85;4.40;;;22.50;66.10;;;;;;4995682;28;20189;-75
2021/09/17 00:07:25;;;;;;;4.57;4.18;;;22.40;66.20;;;;;;4993676;28;21060;-75
2021/09/17 00:09:51;;;;;;;5.22;4.82;;;22.40;66.60;;;;;;4995004;28;20220;-75
2021/09/17 00:12:17;;;;;;;4.75;4.32;;;22.30;66.40;;;;;;4998534;28;20255;-75
2021/09/17 00:14:43;;;;;;;6.47;5.00;;;22.30;66.50;;;;;;4999249;28;20244;-75
2021/09/17 00:17:09;;;;;;;4.95;4.55;;;22.30;66.50;;;;;;4994296;28;20240;-75
2021/09/17 00:19:35;;;;;;;5.30;4.88;;;22.20;66.50;;;;;;5003155;28;20186;-77
2021/09/17 00:22:01;;;;;;;4.47;4.18;;;22.10;67.00;;;;;;5001863;28;20227;-77
2021/09/17 00:24:26;;;;;;;4.20;3.90;;;22.10;67.00;;;;;;5005283;28;20177;-78
2021/09/17 00:26:52;;;;;;;4.57;4.03;;;22.10;66.80;;;;;;4996854;28;20268;-77
2021/09/17 00:29:18;;;;;;;4.80;4.47;;;22.00;68.60;;;;;;5006218;28;20810;-77
2021/09/17 00:31:44;;;;;;;3.70;3.50;;;22.00;67.30;;;;;;5000971;28;20246;-78
2021/09/17 00:34:09;;;;;;;4.80;4.35;;;22.00;66.90;;;;;;4996213;28;20190;-77
2021/09/17 00:36:35;;;;;;;7.38;4.60;;;21.90;67.20;;;;;;4994609;28;20213;-77
2021/09/17 00:39:03;;;;;;;5.68;4.20;;;21.90;67.00;;;;;;5002948;28;20212;-77
2021/09/17 00:41:28;;;;;;;4.38;3.85;;;21.80;67.20;;;;;;4998928;28;20182;-77
2021/09/17 00:43:54;;;;;;;4.70;3.92;;;21.80;67.40;;;;;;4999396;28;20185;-77
2021/09/17 00:46:20;;;;;;;4.68;4.38;;;21.70;67.50;;;;;;4996846;28;20189;-78
2021/09/17 00:48:46;;;;;;;4.20;3.92;;;21.70;67.80;;;;;;4996662;28;20173;-77
2021/09/17 00:51:14;;;;;;;4.22;3.92;;;21.70;67.80;;;;;;4996541;28;20258;-77
2021/09/17 00:53:44;;;;;;;4.82;4.53;;;21.60;70.00;;;;;;5003526;28;20182;-76
2021/09/17 00:56:10;;;;;;;5.07;4.13;;;21.60;68.30;;;;;;5002465;28;20620;-76
2021/09/17 00:58:35;;;;;;;5.97;3.70;;;21.60;68.60;;;;;;4998377;28;20193;-77
2021/09/17 01:01:01;;;;;;;4.40;4.00;;;21.60;68.20;;;;;;4992279;28;20209;-77
2021/09/17 01:03:29;;;;;;;4.57;4.18;;;21.60;68.30;;;;;;5000264;28;20706;-77
2021/09/17 01:05:55;;;;;;;7.90;3.70;;;21.50;68.60;;;;;;5030365;28;20190;-78
2021/09/17 01:08:21;;;;;;;3.88;3.60;;;21.50;68.40;;;;;;5004800;28;20213;-77
2021/09/17 01:10:48;;;;;;;4.20;3.90;;;21.40;68.70;;;;;;4999955;28;20191;-77
2021/09/17 01:13:15;;;;;;;4.50;4.15;;;21.40;69.50;;;;;;4998516;28;20193;-77
2021/09/17 01:15:40;;;;;;;6.32;4.45;;;21.40;69.50;;;;;;4994780;28;20181;-76
2021/09/17 01:18:06;;;;;;;4.38;4.07;;;21.40;69.30;;;;;;5001157;28;20195;-75
2021/09/17 01:20:32;;;;;;;4.47;4.18;;;21.30;69.80;;;;;;4993929;28;20193;-74
2021/09/17 01:22:58;;;;;;;4.63;4.13;;;21.30;69.80;;;;;;4997366;28;20187;-75
2021/09/17 01:25:23;;;;;;;5.25;4.65;;;21.30;70.00;;;;;;4996378;28;20186;-75
2021/09/17 01:27:52;;;;;;;6.13;4.55;;;21.20;70.30;;;;;;4995170;28;20564;-75
2021/09/17 01:30:19;;;;;;;4.60;4.20;;;21.20;70.20;;;;;;4993957;28;20742;-74
2021/09/17 01:32:46;;;;;;;4.90;4.10;;;21.20;70.20;;;;;;4996624;28;20176;-75
2021/09/17 01:35:14;;;;;;;3.88;3.70;;;21.10;70.40;;;;;;4995302;28;20181;-75
2021/09/17 01:37:41;;;;;;;4.30;3.88;;;21.10;70.60;;;;;;4999007;28;20271;-75
2021/09/17 01:40:08;;;;;;;4.25;3.97;;;21.00;70.50;;;;;;4993209;28;20177;-75
2021/09/17 01:42:34;;;;;;;6.18;3.72;;;20.90;70.80;;;;;;4994166;28;20174;-75
2021/09/17 01:45:00;;;;;;;5.57;4.07;;;20.90;70.80;;;;;;4997255;28;20536;-76
2021/09/17 01:47:26;;;;;;;3.80;3.60;;;20.90;70.60;;;;;;4992281;28;20191;-76
2021/09/17 01:49:52;;;;;;;4.32;3.75;;;20.90;70.50;;;;;;4994987;28;20192;-76
2021/09/17 01:52:17;;;;;;;4.10;3.70;;;20.80;70.60;;;;;;5001814;28;20623;-76
2021/09/17 01:54:43;;;;;;;4.22;3.92;;;20.80;71.70;;;;;;5000236;28;20233;-76
2021/09/17 01:57:09;;;;;;;7.20;4.32;;;20.80;71.00;;;;;;4994884;28;20754;-76
2021/09/17 01:59:35;;;;;;;4.00;3.70;;;20.80;71.00;;;;;;4994808;28;20185;-75
2021/09/17 02:02:02;;;;;;;3.97;3.70;;;20.80;70.70;;;;;;4991966;28;20220;-75
2021/09/17 02:04:28;;;;;;;4.00;3.70;;;20.80;71.10;;;;;;4996734;28;20713;-75
2021/09/17 02:06:54;;;;;;;3.45;2.92;;;20.80;71.10;;;;;;4992235;28;20268;-75
2021/09/17 02:09:19;;;;;;;3.95;3.70;;;20.80;71.00;;;;;;4995227;28;20192;-76
2021/09/17 02:11:45;;;;;;;3.83;3.63;;;20.80;71.30;;;;;;4992871;28;20193;-77
2021/09/17 02:14:11;;;;;;;4.35;3.95;;;20.80;72.10;;;;;;4997273;28;20173;-77
2021/09/17 02:16:38;;;;;;;3.67;3.53;;;20.70;71.90;;;;;;5002140;28;20312;-75
2021/09/17 02:19:05;;;;;;;5.53;3.70;;;20.70;71.80;;;;;;4998477;28;20216;-76
2021/09/17 02:21:30;;;;;;;6.95;3.50;;;20.70;71.90;;;;;;4993012;28;20259;-74
2021/09/17 02:23:56;;;;;;;4.25;3.83;;;20.70;71.60;;;;;;5000879;28;20619;-76
2021/09/17 02:26:22;;;;;;;3.70;3.50;;;20.70;71.80;;;;;;4998461;28;20613;-76
2021/09/17 02:28:48;;;;;;;4.10;3.90;;;20.70;71.70;;;;;;5007114;28;20184;-77
2021/09/17 02:31:14;;;;;;;6.22;3.95;;;20.70;73.40;;;;;;5006653;28;20259;-76
2021/09/17 02:33:40;;;;;;;3.75;3.45;;;20.80;71.70;;;;;;5006192;28;20213;-77
2021/09/17 02:36:06;;;;;;;5.18;3.67;;;20.70;71.60;;;;;;5004980;28;20209;-77
2021/09/17 02:38:33;;;;;;;3.95;3.70;;;20.70;72.30;;;;;;5007867;28;20185;-77
2021/09/17 02:40:58;;;;;;;6.05;4.22;;;20.70;72.30;;;;;;5006577;28;20173;-76
2021/09/17 02:43:24;;;;;;;5.00;4.35;;;20.70;72.40;;;;;;5007267;28;20186;-77
2021/09/17 02:45:50;;;;;;;4.75;4.28;;;20.70;74.70;;;;;;5001980;28;20178;-76
2021/09/17 02:48:16;;;;;;;4.20;3.90;;;20.70;72.90;;;;;;5001880;28;20200;-77
2021/09/17 02:50:41;;;;;;;4.30;4.10;;;20.70;73.50;;;;;;4998762;28;20272;-76
2021/09/17 02:53:07;;;;;;;4.28;3.88;;;20.70;73.50;;;;;;5000505;28;20791;-77
2021/09/17 02:55:33;;;;;;;4.07;3.78;;;20.70;73.80;;;;;;5006625;28;20199;-77
2021/09/17 02:58:03;;;;;;;6.43;4.03;;;20.70;73.20;;;;;;5005010;28;20213;-76
2021/09/17 03:00:29;;;;;;;4.72;4.25;;;20.70;73.10;;;;;;5006697;28;20189;-77
2021/09/17 03:02:55;;;;;;;7.30;4.63;;;20.70;74.60;;;;;;5008621;28;20184;-76
2021/09/17 03:05:21;;;;;;;6.22;4.70;;;20.60;73.40;;;;;;5008670;28;20185;-77
2021/09/17 03:07:47;;;;;;;7.05;4.72;;;20.70;73.10;;;;;;5002712;28;20239;-76
2021/09/17 03:10:13;;;;;;;4.82;4.35;;;20.60;73.30;;;;;;4999948;28;20625;-75
2021/09/17 03:12:39;;;;;;;6.55;4.32;;;20.60;73.20;;;;;;5003879;28;20188;-76
2021/09/17 03:15:05;;;;;;;5.85;4.15;;;20.60;73.10;;;;;;5002631;28;20180;-76
2021/09/17 03:17:31;;;;;;;4.32;4.03;;;20.60;72.90;;;;;;5005953;28;20217;-76
2021/09/17 03:19:57;;;;;;;4.82;4.43;;;20.60;72.80;;;;;;5005725;28;20216;-76
2021/09/17 03:22:22;;;;;;;5.18;4.13;;;20.60;73.10;;;;;;5035460;28;20240;-77
2021/09/17 03:24:48;;;;;;;4.88;4.25;;;20.60;72.80;;;;;;5005045;28;20185;-77
2021/09/17 03:27:14;;;;;;;4.32;3.92;;;20.60;72.80;;;;;;5001755;28;20624;-76
2021/09/17 03:29:41;;;;;;;4.72;4.38;;;20.60;74.60;;;;;;4996861;28;20218;-76
2021/09/17 03:32:07;;;;;;;9.57;4.55;;;20.60;74.50;;;;;;4997509;28;20197;-76
2021/09/17 03:34:32;;;;;;;5.32;4.82;;;20.60;72.70;;;;;;5002873;28;20173;-76
2021/09/17 03:36:58;;;;;;;6.72;4.70;;;20.60;72.80;;;;;;5002207;28;20213;-77
2021/09/17 03:39:24;;;;;;;6.13;4.80;;;20.60;72.50;;;;;;5005202;28;20185;-76
2021/09/17 03:41:49;;;;;;;5.88;4.32;;;20.60;72.10;;;;;;5001474;28;20643;-75
2021/09/17 03:44:16;;;;;;;5.68;5.18;;;20.60;72.60;;;;;;4998239;28;20189;-76
2021/09/17 03:46:42;;;;;;;4.47;4.18;;;20.60;73.80;;;;;;5004143;28;20180;-76
2021/09/17 03:49:10;;;;;;;5.22;4.72;;;20.60;72.50;;;;;;5000889;28;20198;-76
2021/09/17 03:51:35;;;;;;;4.60;4.35;;;20.50;72.50;;;;;;5004968;28;20177;-77
2021/09/17 03:54:01;;;;;;;4.13;3.83;;;20.50;72.60;;;;;;5000934;28;20205;-76
2021/09/17 03:56:27;;;;;;;4.90;4.55;;;20.50;72.60;;;;;;5003590;28;20218;-76
2021/09/17 03:58:52;;;;;;;5.05;4.65;;;20.50;72.80;;;;;;5001165;28;20577;-76
2021/09/17 04:01:18;;;;;;;4.20;3.95;;;20.50;73.50;;;;;;4997503;28;20280;-77
2021/09/17 04:03:44;;;;;;;6.97;4.93;;;20.50;73.80;;;;;;4998897;28;20639;-77
2021/09/17 04:06:10;;;;;;;5.40;4.90;;;20.50;75.10;;;;;;4997738;28;20602;-76
2021/09/17 04:08:35;;;;;;;5.70;4.00;;;20.40;74.70;;;;;;4986563;28;20220;-77
2021/09/17 04:11:01;;;;;;;6.40;4.47;;;20.40;73.40;;;;;;4997972;28;20761;-77
2021/09/17 04:13:27;;;;;;;5.97;4.88;;;20.30;75.90;;;;;;5000822;28;20272;-77
2021/09/17 04:15:53;;;;;;;5.60;4.97;;;20.20;76.10;;;;;;4992285;28;20642;-75
2021/09/17 04:18:19;;;;;;;5.20;4.80;;;20.20;75.90;;;;;;4993795;28;20801;-76
2021/09/17 04:20:44;;;;;;;5.05;4.65;;;20.20;74.20;;;;;;4993780;28;20182;-76
2021/09/17 04:23:10;;;;;;;7.82;5.20;;;20.10;75.30;;;;;;4992826;28;20185;-76
2021/09/17 04:25:36;;;;;;;5.45;4.90;;;20.20;75.60;;;;;;5021410;28;20276;-76
2021/09/17 04:28:02;;;;;;;4.82;4.45;;;20.20;73.80;;;;;;4991915;28;20624;-75
2021/09/17 04:30:27;;;;;;;4.97;4.13;;;20.20;74.00;;;;;;5019753;28;20642;-75
2021/09/17 04:32:53;;;;;;;5.50;4.63;;;20.20;74.80;;;;;;4989888;28;20204;-74
2021/09/17 04:35:19;;;;;;;4.88;4.55;;;20.20;74.00;;;;;;4991088;28;20194;-76
2021/09/17 04:37:53;;;;;;;5.13;4.82;;;20.30;74.40;;;;;;4984754;28;20288;-77
2021/09/17 04:40:18;;;;;;;6.63;5.68;;;20.30;74.00;;;;;;4991756;28;20217;-75
2021/09/17 04:42:44;;;;;;;5.93;5.22;;;20.30;74.20;;;;;;4994565;28;20189;-75
2021/09/17 04:45:10;;;;;;;5.70;5.13;;;20.30;74.20;;;;;;4990116;28;20185;-76
2021/09/17 04:47:37;;;;;;;6.68;4.95;;;20.30;74.20;;;;;;5000214;28;20196;-78
2021/09/17 04:50:04;;;;;;;9.30;5.43;;;20.40;76.10;;;;;;4995698;28;20185;-79
2021/09/17 04:52:30;;;;;;;10.13;5.55;;;20.40;74.00;;;;;;4990576;28;20579;-78
2021/09/17 04:54:59;;;;;;;5.55;4.97;;;20.40;74.00;;;;;;4992338;28;20187;-78
2021/09/17 04:57:28;;;;;;;5.38;4.93;;;20.40;73.60;;;;;;4989648;28;20217;-78
2021/09/17 04:59:54;;;;;;;10.90;5.50;;;20.40;73.40;;;;;;4990375;28;20675;-79
2021/09/17 05:02:20;;;;;;;7.00;5.13;;;20.40;73.80;;;;;;4994780;28;20240;-76
2021/09/17 05:04:46;;;;;;;7.90;5.38;;;20.40;74.20;;;;;;4992195;28;20296;-79
2021/09/17 05:07:13;;;;;;;5.10;4.75;;;20.40;74.50;;;;;;4993188;28;20188;-79
2021/09/17 05:09:39;;;;;;;7.00;5.07;;;20.40;74.20;;;;;;4990879;28;20193;-79
2021/09/17 05:12:05;;;;;;;7.40;5.30;;;20.40;74.20;;;;;;4996736;28;20224;-79
2021/09/17 05:14:32;;;;;;;5.82;5.32;;;20.40;76.70;;;;;;4991059;28;20267;-80
2021/09/17 05:16:57;;;;;;;10.18;5.93;;;20.40;74.90;;;;;;4997743;28;20221;-79
2021/09/17 05:19:25;;;;;;;7.82;5.20;;;20.40;74.10;;;;;;4992907;28;20833;-78
2021/09/17 05:21:52;;;;;;;5.28;4.70;;;20.50;73.90;;;;;;4987231;28;20663;-79
2021/09/17 05:24:18;;;;;;;6.15;5.50;;;20.50;74.00;;;;;;4988343;28;20259;-76
2021/09/17 05:26:43;;;;;;;5.72;5.30;;;20.50;74.00;;;;;;4988470;28;20188;-77
2021/09/17 05:29:09;;;;;;;7.35;5.68;;;20.50;74.30;;;;;;4990487;28;20211;-78
2021/09/17 05:31:35;;;;;;;6.28;5.72;;;20.50;74.20;;;;;;4993500;28;20192;-76
2021/09/17 05:34:01;;;;;;;6.35;5.22;;;20.60;74.10;;;;;;4986989;28;20276;-75
2021/09/17 05:36:26;;;;;;;5.10;4.55;;;20.60;73.50;;;;;;4988135;28;20248;-76
2021/09/17 05:38:52;;;;;;;10.60;6.80;;;20.60;73.90;;;;;;4992693;28;20219;-77
2021/09/17 05:41:18;;;;;;;5.75;5.07;;;20.60;73.60;;;;;;4991976;28;20573;-76
2021/09/17 05:43:43;;;;;;;6.30;5.45;;;20.60;73.20;;;;;;4988803;28;20642;-75
2021/09/17 05:46:09;;;;;;;7.88;6.35;;;20.60;73.30;;;;;;4983856;28;20929;-77
2021/09/17 05:48:35;;;;;;;6.03;5.53;;;20.70;73.60;;;;;;4987360;28;20181;-77
2021/09/17 05:51:01;;;;;;;9.32;5.78;;;20.70;73.70;;;;;;4988800;28;20173;-78
2021/09/17 05:53:26;;;;;;;7.10;5.25;;;20.70;73.30;;;;;;5017342;28;20185;-78
2021/09/17 05:55:52;;;;;;;5.70;5.20;;;20.80;73.30;;;;;;4989842;28;20239;-77
2021/09/17 05:58:18;;;;;;;9.20;5.25;;;20.90;73.30;;;;;;5021055;28;20272;-78
2021/09/17 06:00:44;;;;;;;7.18;5.70;;;20.90;73.30;;;;;;4989742;28;20308;-76
2021/09/17 06:03:09;;;;;;;5.97;5.47;;;21.00;73.10;;;;;;4989335;28;20193;-77
2021/09/17 06:05:36;;;;;;;5.75;5.25;;;21.10;73.10;;;;;;4992084;28;20177;-77
2021/09/17 06:08:02;;;;;;;5.75;5.32;;;21.20;72.80;;;;;;4987372;28;20199;-78
2021/09/17 06:10:28;;;;;;;5.95;5.45;;;21.20;72.50;;;;;;4986947;28;20192;-77
2021/09/17 06:12:53;;;;;;;7.13;5.78;;;21.30;72.20;;;;;;4990071;28;20192;-79
2021/09/17 06:15:19;;;;;;;6.05;5.45;;;21.40;72.20;;;;;;4986276;28;20213;-77
2021/09/17 06:17:46;;;;;;;6.47;5.97;;;21.40;72.20;;;;;;4992055;28;20217;-77
2021/09/17 06:20:13;;;;;;;6.57;5.82;;;21.50;72.00;;;;;;4990567;28;20229;-76
2021/09/17 06:22:41;;;;;;;7.85;6.20;;;21.60;71.50;;;;;;4986809;28;20209;-78
2021/09/17 06:25:08;;;;;;;6.05;5.45;;;21.60;71.70;;;;;;4984182;28;20193;-76
2021/09/17 06:27:34;;;;;;;7.75;5.22;;;21.70;73.10;;;;;;4984445;28;20193;-76
2021/09/17 06:29:59;;;;;;;10.27;7.07;;;21.70;71.90;;;;;;4988324;28;20185;-77
2021/09/17 06:32:25;;;;;;;9.45;6.38;;;21.80;72.20;;;;;;4995681;28;20197;-77
2021/09/17 06:34:51;;;;;;;7.97;6.05;;;21.80;71.70;;;;;;4993258;28;20204;-77
2021/09/17 06:37:16;;;;;;;8.93;6.32;;;21.90;71.50;;;;;;4982157;28;20225;-78
2021/09/17 06:39:42;;;;;;;8.95;5.85;;;22.00;71.50;;;;;;4991015;28;20188;-77
2021/09/17 06:42:08;;;;;;;6.40;5.75;;;22.00;71.70;;;;;;4998994;28;20208;-77
2021/09/17 06:44:34;;;;;;;9.85;5.28;;;22.10;71.50;;;;;;4993661;28;20189;-78
2021/09/17 06:47:00;;;;;;;7.60;5.80;;;22.20;71.20;;;;;;4989835;28;20188;-78
2021/09/17 06:49:26;;;;;;;6.95;5.93;;;22.30;71.00;;;;;;4988719;28;20182;-78
2021/09/17 06:51:57;;;;;;;11.45;6.25;;;22.50;71.50;;;;;;4987215;28;20247;-76
2021/09/17 06:54:23;;;;;;;9.07;5.85;;;22.60;71.40;;;;;;4987491;28;20212;-78
2021/09/17 06:56:48;;;;;;;9.80;6.60;;;22.60;70.80;;;;;;4993934;28;20243;-77
2021/09/17 06:59:14;;;;;;;7.68;5.95;;;22.60;70.40;;;;;;4993466;28;20262;-79
2021/09/17 07:01:40;;;;;;;10.30;6.05;;;22.60;70.00;;;;;;4989922;28;20182;-78
2021/09/17 07:04:06;;;;;;;5.03;4.57;;;22.60;69.20;;;;;;4989699;28;20181;-77
2021/09/17 07:06:36;;;;;;;7.07;5.32;;;22.70;68.80;;;;;;4986375;28;20272;-77
2021/09/17 07:09:03;;;;;;;7.28;4.95;;;22.70;69.00;;;;;;4990435;28;20683;-78
2021/09/17 07:11:29;;;;;;;7.03;5.15;;;22.80;68.70;;;;;;4994680;28;20200;-78
2021/09/17 07:13:54;;;;;;;4.80;4.40;;;22.90;69.20;;;;;;4992941;28;20185;-78
2021/09/17 07:16:20;;;;;;;4.95;4.47;;;22.90;68.60;;;;;;4992818;28;20316;-78
2021/09/17 07:18:46;;;;;;;5.50;4.50;;;23.00;68.40;;;;;;4996115;28;20205;-79
2021/09/17 07:21:12;;;;;;;4.63;4.25;;;23.10;67.90;;;;;;4992435;28;21797;-77
2021/09/17 07:23:40;;;;;;;10.95;4.20;;;23.20;66.80;;;;;;4994651;28;20189;-79
2021/09/17 07:26:06;;;;;;;6.38;4.57;;;23.30;67.50;;;;;;4995058;28;20184;-79
2021/09/17 07:28:33;;;;;;;6.50;4.60;;;23.40;67.40;;;;;;4989761;28;20194;-77
2021/09/17 07:31:00;;;;;;;7.60;4.55;;;23.50;67.40;;;;;;4987498;28;20220;-79
2021/09/17 07:33:26;;;;;;;4.65;4.20;;;23.60;66.40;;;;;;4995129;28;20186;-77
2021/09/17 07:35:52;;;;;;;3.95;3.75;;;23.60;65.00;;;;;;4992061;28;20183;-78
2021/09/17 07:38:18;;;;;;;3.95;3.72;;;23.70;64.80;;;;;;4995009;28;20309;-78
2021/09/17 07:40:44;;;;;;;3.92;3.63;;;23.80;65.20;;;;;;4994803;28;20206;-80
2021/09/17 07:43:09;;;;;;;4.68;4.28;;;23.90;65.40;;;;;;4997515;28;20620;-80
2021/09/17 07:45:35;;;;;;;5.05;3.63;;;24.00;64.50;;;;;;4991876;28;20205;-78
2021/09/17 07:48:02;;;;;;;4.00;3.85;;;24.20;64.40;;;;;;4996199;28;20193;-79
2021/09/17 07:50:29;;;;;;;3.95;3.75;;;24.30;64.10;;;;;;4997297;28;20181;-79
2021/09/17 07:52:56;;;;;;;3.60;3.30;;;24.40;64.10;;;;;;4987428;28;20196;-78
2021/09/17 07:55:22;;;;;;;4.72;3.95;;;24.50;63.50;;;;;;4988604;28;20637;-79
2021/09/17 07:57:48;;;;;;;3.70;3.50;;;24.70;63.40;;;;;;4991720;28;20729;-79
2021/09/17 08:00:15;;;;;;;7.32;4.70;;;24.80;63.00;;;;;;4996293;28;20185;-79
2021/09/17 08:02:41;;;;;;;3.75;3.47;;;25.00;62.30;;;;;;4995257;28;20342;-79
2021/09/17 08:05:08;;;;;;;4.00;3.80;;;25.20;61.60;;;;;;4990293;28;20218;-80
2021/09/17 08:07:34;;;;;;;3.85;3.72;;;25.50;61.30;;;;;;4990022;28;20193;-79
2021/09/17 08:09:59;;;;;;;4.20;4.00;;;25.50;61.20;;;;;;4995430;28;20725;-79
2021/09/17 08:12:25;;;;;;;4.30;3.85;;;25.70;61.10;;;;;;4996124;28;20205;-80
2021/09/17 08:14:51;;;;;;;4.88;3.65;;;26.00;61.30;;;;;;4988444;28;20291;-80
2021/09/17 08:17:16;;;;;;;3.67;3.35;;;26.40;60.50;;;;;;4997002;28;20671;-80
2021/09/17 08:19:42;;;;;;;5.35;3.22;;;26.80;60.30;;;;;;4996140;28;20188;-80
2021/09/17 08:22:08;;;;;;;5.65;4.13;;;27.40;59.40;;;;;;4991858;28;20259;-81
2021/09/17 08:24:34;;;;;;;5.35;3.97;;;27.90;58.20;;;;;;4992165;28;20240;-80
2021/09/17 08:27:00;;;;;;;5.10;3.92;;;28.50;57.50;;;;;;4990271;28;20307;-80
2021/09/17 08:29:27;;;;;;;4.75;4.35;;;29.10;56.80;;;;;;4993580;28;20189;-80
2021/09/17 08:31:54;;;;;;;4.57;3.72;;;29.80;55.50;;;;;;4996816;28;20213;-80
2021/09/17 08:34:20;;;;;;;6.82;3.92;;;30.50;54.80;;;;;;4995378;28;20761;-80
2021/09/17 08:36:46;;;;;;;4.55;3.85;;;31.20;53.90;;;;;;4988684;28;20209;-80
2021/09/17 08:39:12;;;;;;;6.80;4.18;;;31.90;53.70;;;;;;4990491;28;20553;-81
2021/09/17 08:41:38;;;;;;;7.85;4.25;;;32.50;52.90;;;;;;4998962;28;20177;-81
2021/09/17 08:44:04;;;;;;;4.03;3.72;;;33.20;51.60;;;;;;4993727;28;20177;-81
2021/09/17 08:46:30;;;;;;;5.10;3.70;;;33.90;50.90;;;;;;4993886;28;20526;-78
2021/09/17 08:48:57;;;;;;;4.72;4.22;;;34.40;50.40;;;;;;4990264;28;20954;-81
2021/09/17 08:51:23;;;;;;;4.53;4.22;;;34.90;50.10;;;;;;4991623;28;20181;-80
2021/09/17 08:53:49;;;;;;;8.20;4.57;;;35.40;48.50;;;;;;4990189;28;20689;-80
2021/09/17 08:56:17;;;;;;;8.35;4.85;;;35.80;49.10;;;;;;4993910;28;20209;-81
2021/09/17 08:58:46;;;;;;;4.78;4.38;;;36.20;48.80;;;;;;4991435;28;20319;-81
2021/09/17 09:01:33;;;;;;;4.40;4.07;;;36.70;48.70;;;;;;4990161;28;20200;-81
2021/09/17 09:04:02;;;;;;;4.68;4.28;;;37.10;45.90;;;;;;4993675;28;20624;-80
2021/09/17 09:06:40;;;;;;;5.70;4.68;;;37.20;46.60;;;;;;4990904;28;20190;-80
2021/09/17 09:09:19;;;;;;;4.85;4.38;;;37.40;46.30;;;;;;4990001;28;20184;-80
2021/09/17 09:11:53;;;;;;;9.00;4.82;;;38.30;46.20;;;;;;4987640;28;20234;-80
2021/09/17 09:14:20;;;;;;;6.95;4.53;;;38.30;45.30;;;;;;4996604;28;20189;-78
2021/09/17 09:16:51;;;;;;;12.88;4.13;;;39.00;44.60;;;;;;4994341;28;20228;-80
2021/09/17 09:19:24;;;;;;;5.30;4.03;;;39.10;45.50;;;;;;4989977;28;20212;-80
2021/09/17 09:21:53;;;;;;;6.72;4.15;;;39.30;44.60;;;;;;4988477;28;20963;-80
2021/09/17 09:24:23;;;;;;;6.72;4.03;;;39.50;44.40;;;;;;4986926;28;20193;-80
2021/09/17 09:27:08;;;;;;;6.45;4.05;;;39.70;45.60;;;;;;4987521;28;20243;-80
2021/09/17 09:29:34;;;;;;;4.50;4.20;;;40.10;43.00;;;;;;4989465;28;20254;-80
2021/09/17 09:32:00;;;;;;;4.75;4.00;;;40.50;43.50;;;;;;4990349;28;20679;-79
2021/09/17 09:34:56;;;;;;;4.93;4.30;;;40.80;44.10;;;;;;4990366;28;20184;-80
2021/09/17 09:37:26;;;;;;;6.45;3.97;;;40.60;42.90;;;;;;4990577;28;20273;-81
2021/09/17 09:40:00;;;;;;;8.85;4.45;;;40.70;44.40;;;;;;4990060;28;20185;-80
2021/09/17 09:42:35;;;;;;;4.72;4.10;;;40.90;44.20;;;;;;4991564;28;20189;-78
2021/09/17 09:45:15;;;;;;;4.57;3.95;;;40.90;43.20;;;;;;4991649;28;20187;-80
2021/09/17 09:48:02;;;;;;;6.22;4.40;;;40.40;42.90;;;;;;4991687;28;20184;-81
2021/09/17 09:50:30;;;;;;;4.82;4.10;;;39.60;44.00;;;;;;4991624;28;20223;-80
2021/09/17 09:53:01;;;;;;;9.10;4.75;;;38.50;45.40;;;;;;4994189;28;20244;-80
2021/09/17 09:55:27;;;;;;;9.65;4.30;;;37.50;45.90;;;;;;4993838;28;20760;-80
2021/09/17 09:57:55;;;;;;;11.73;4.68;;;36.80;47.60;;;;;;4992350;28;20248;-80
2021/09/17 10:00:23;;;;;;;13.07;4.28;;;36.20;47.80;;;;;;4990930;28;20192;-79
2021/09/17 10:02:50;;;;;;;4.72;3.88;;;35.80;48.60;;;;;;4994347;28;20180;-80
2021/09/17 10:05:19;;;;;;;6.90;4.43;;;35.40;48.10;;;;;;4994384;28;20193;-80
2021/09/17 10:07:45;;;;;;;8.05;4.20;;;35.50;49.10;;;;;;4986712;28;20189;-80
2021/09/17 10:10:12;;;;;;;11.30;3.50;;;36.00;48.40;;;;;;4989880;28;20583;-79
2021/09/17 10:12:40;;;;;;;8.85;3.97;;;36.60;47.80;;;;;;4993678;28;20193;-80
2021/09/17 10:15:10;;;;;;;6.05;3.30;;;36.80;46.60;;;;;;4991057;28;20717;-81
2021/09/17 10:17:38;;;;;;;13.32;3.35;;;36.80;46.40;;;;;;4990194;28;20216;-80
2021/09/17 10:20:09;;;;;;;8.90;2.97;;;36.70;46.60;;;;;;4989541;28;20187;-80
2021/09/17 10:22:43;;;;;;;3.72;2.97;;;36.50;45.60;;;;;;4988378;28;20813;-79
2021/09/17 10:25:20;;;;;;;6.35;2.80;;;36.20;46.30;;;;;;4989163;28;20264;-80
2021/09/17 10:28:11;;;;;;;8.02;3.20;;;35.70;46.40;;;;;;4989082;28;20184;-80
2021/09/17 10:30:40;;;;;;;3.80;3.20;;;35.20;47.30;;;;;;4990098;28;20737;-80
2021/09/17 10:33:25;;;;;;;5.55;3.63;;;34.60;48.30;;;;;;4990790;28;20946;-79
2021/09/17 10:35:52;;;;;;;11.15;2.63;;;33.70;47.60;;;;;;4988468;28;20192;-80
2021/09/17 10:38:17;;;;;;;11.43;2.45;;;32.90;48.50;;;;;;4987781;28;20295;-80
2021/09/17 10:41:02;;;;;;;7.55;2.97;;;32.30;49.60;;;;;;4987858;28;20189;-79
2021/09/17 10:43:31;;;;;;;12.00;3.10;;;31.80;49.80;;;;;;4989488;28;20191;-79
2021/09/17 10:46:02;;;;;;;7.43;3.22;;;31.40;50.30;;;;;;4987432;28;20597;-79
2021/09/17 10:48:49;;;;;;;8.88;2.72;;;31.20;51.60;;;;;;4992322;28;20193;-80
2021/09/17 10:51:41;;;;;;;13.73;3.03;;;31.20;51.20;;;;;;4989082;28;20201;-79
2021/09/17 10:54:10;;;;;;;7.00;2.67;;;31.70;51.30;;;;;;4992026;28;20185;-79
2021/09/17 10:56:48;;;;;;;14.90;3.30;;;32.20;50.40;;;;;;4991753;28;20609;-79
2021/09/17 10:59:21;;;;;;;6.60;2.90;;;32.70;49.30;;;;;;4991730;28;20699;-80
2021/09/17 11:02:03;;;;;;;6.65;3.00;;;32.80;49.80;;;;;;4988632;28;22367;-80
2021/09/17 11:04:31;;;;;;;7.95;2.53;;;33.00;49.50;;;;;;4993196;28;20184;-80
2021/09/17 11:07:16;;;;;;;7.05;2.70;;;33.20;49.50;;;;;;4994847;28;20840;-79
2021/09/17 11:09:57;;;;;;;16.00;3.30;;;33.30;48.90;;;;;;4996329;28;20201;-80
2021/09/17 11:12:25;;;;;;;13.20;3.13;;;33.30;49.00;;;;;;4994404;28;20197;-80
2021/09/17 11:15:12;;;;;;;6.65;2.47;;;33.10;48.60;;;;;;4993365;28;20185;-79
2021/09/17 11:17:41;;;;;;;5.25;2.63;;;32.50;49.30;;;;;;4991761;28;20220;-77
2021/09/17 11:20:11;;;;;;;6.88;2.25;;;32.40;49.30;;;;;;4997082;28;20200;-78
2021/09/17 11:22:55;;;;;;;13.30;2.75;;;32.40;49.70;;;;;;4993584;28;20243;-77
2021/09/17 11:25:29;;;;;;;10.20;2.17;;;32.40;49.30;;;;;;4992260;28;20662;-77
2021/09/17 11:27:56;;;;;;;12.30;2.80;;;32.20;49.80;;;;;;4994265;28;20184;-77
2021/09/17 11:30:24;;;;;;;8.20;2.17;;;32.10;49.90;;;;;;4992504;28;20733;-77
2021/09/17 11:32:50;;;;;;;4.47;2.55;;;32.00;50.40;;;;;;4989598;28;20264;-77
2021/09/17 11:35:16;;;;;;;6.60;2.58;;;31.80;50.30;;;;;;4992416;28;20192;-77
2021/09/17 11:37:49;;;;;;;11.43;2.47;;;31.60;50.50;;;;;;4992249;28;20217;-75
2021/09/17 11:40:16;;;;;;;9.48;3.17;;;31.40;51.40;;;;;;4993816;28;20220;-77
2021/09/17 11:42:43;;;;;;;12.50;2.55;;;31.20;51.70;;;;;;4996024;28;20231;-77
2021/09/17 11:45:14;;;;;;;7.82;2.67;;;31.10;52.00;;;;;;4992933;28;20188;-77
2021/09/17 11:47:46;;;;;;;9.20;2.38;;;31.00;52.50;;;;;;4996164;28;20207;-78
2021/09/17 11:50:15;;;;;;;7.75;2.30;;;31.10;53.10;;;;;;4986512;28;20189;-77
2021/09/17 11:52:52;;;;;;;3.85;2.83;;;31.30;53.30;;;;;;4990065;28;20184;-77
2021/09/17 11:55:21;;;;;;;8.27;3.20;;;31.60;53.10;;;;;;4991261;28;20209;-77
2021/09/17 11:57:49;;;;;;;6.10;2.45;;;31.70;52.90;;;;;;4982162;28;20217;-77
2021/09/17 12:00:20;;;;;;;9.63;2.42;;;31.70;52.80;;;;;;4987367;28;20189;-78
2021/09/17 12:02:49;;;;;;;4.53;2.47;;;31.60;53.60;;;;;;4990788;28;20201;-77
2021/09/17 12:05:20;;;;;;;11.27;2.88;;;31.50;53.60;;;;;;4992387;28;20189;-78
2021/09/17 12:07:49;;;;;;;8.60;3.35;;;31.30;53.40;;;;;;4990020;28;20264;-76
2021/09/17 12:10:17;;;;;;;8.75;2.85;;;31.20;53.70;;;;;;4993082;28;20284;-76
2021/09/17 12:12:46;;;;;;;9.60;3.40;;;31.10;53.90;;;;;;4988809;28;20273;-77
2021/09/17 12:15:12;;;;;;;10.43;3.15;;;31.00;54.40;;;;;;4995987;28;20199;-77
2021/09/17 12:17:58;;;;;;;11.18;3.60;;;30.90;54.60;;;;;;4990838;28;20218;-77
2021/09/17 12:20:43;;;;;;;9.93;2.67;;;30.60;55.90;;;;;;4995073;28;20822;-77
2021/09/17 12:23:10;;;;;;;5.43;2.72;;;30.40;58.00;;;;;;5014567;28;20205;-77
2021/09/17 12:25:36;;;;;;;18.08;3.25;;;30.00;56.70;;;;;;4990330;28;20212;-77
2021/09/17 12:28:06;;;;;;;12.30;2.92;;;29.60;58.50;;;;;;4991122;28;20212;-76
2021/09/17 12:30:33;;;;;;;8.55;3.47;;;29.30;58.80;;;;;;4987504;28;20186;-75
2021/09/17 12:33:16;;;;;;;5.97;2.67;;;28.90;60.80;;;;;;4995390;28;20212;-75
2021/09/17 12:35:45;;;;;;;13.10;3.33;;;28.60;61.40;;;;;;4992697;28;20217;-73
2021/09/17 12:38:12;;;;;;;7.65;3.00;;;28.30;62.50;;;;;;4992268;28;20630;-75
2021/09/17 12:40:41;;;;;;;8.70;3.10;;;28.00;63.50;;;;;;4993533;28;20177;-75
2021/09/17 12:43:15;;;;;;;6.18;3.08;;;27.70;62.50;;;;;;4992294;28;20197;-75
2021/09/17 12:45:54;;;;;;;7.25;3.33;;;27.60;63.60;;;;;;4990220;28;20212;-76
2021/09/17 12:48:23;;;;;;;6.13;3.05;;;27.40;63.90;;;;;;4992226;28;20196;-76